Time;durP1;ratioP1;P1;durP2;ratioP2;P2;SDS_P1;SDS_P2;PMS_P1;PMS_P2;Temp;Humidity;BMP_temperature;BMP_pressure;BME280_temperature;BME280_humidity;BME280_pressure;Samples;Min_cycle;Max_cycle;Signal;HPM_P1;HPM_P2
2022/12/05 05:44:55;;;;;;;8.10;4.60;;;;;;;;;;5476046;23;20083;-59
2022/12/05 05:47:21;;;;;;;8.73;4.28;;;;;;;;;;4993674;28;20044;-58
2022/12/05 05:49:47;;;;;;;8.27;4.00;;;;;;;;;;4993456;28;20389;-58
2022/12/05 05:52:13;;;;;;;7.88;3.65;;;;;;;;;;4993423;28;20561;-59
2022/12/05 05:54:40;;;;;;;9.98;4.30;;;;;;;;;;4987387;28;20042;-59
2022/12/05 05:57:06;;;;;;;8.82;4.68;;;;;;;;;;4982968;28;20034;-58
2022/12/05 05:59:32;;;;;;;11.73;5.45;;;;;;;;;;4965228;28;20029;-62
2022/12/05 06:01:58;;;;;;;7.93;4.07;;;;;;;;;;4981096;28;20034;-58
2022/12/05 06:04:24;;;;;;;10.40;5.03;;;;;;;;;;4965261;28;20765;-59
2022/12/05 06:06:50;;;;;;;7.88;4.05;;;;;;;;;;4982424;28;20081;-62
2022/12/05 06:09:16;;;;;;;11.55;4.85;;;;;;;;;;4981583;28;20030;-59
2022/12/05 06:11:42;;;;;;;12.70;5.50;;;;;;;;;;4983310;28;20018;-59
2022/12/05 06:14:09;;;;;;;14.57;6.10;;;;;;;;;;4964204;28;20380;-58
2022/12/05 06:16:35;;;;;;;13.98;6.13;;;;;;;;;;4959642;28;20031;-58
2022/12/05 06:19:01;;;;;;;10.88;5.07;;;;;;;;;;4976238;28;20087;-58
2022/12/05 06:21:27;;;;;;;11.48;5.57;;;;;;;;;;4978581;28;20080;-71
2022/12/05 06:23:53;;;;;;;14.77;6.60;;;;;;;;;;4975840;28;20165;-59
2022/12/05 06:26:20;;;;;;;15.32;6.88;;;;;;;;;;4978023;28;20033;-59
2022/12/05 06:28:47;;;;;;;12.02;5.57;;;;;;;;;;4983110;28;20061;-60
2022/12/05 06:31:21;;;;;;;12.02;5.47;;;;;;;;;;4982094;28;20035;-59
2022/12/05 06:33:47;;;;;;;9.65;4.72;;;;;;;;;;4981210;28;20038;-59
2022/12/05 06:36:15;;;;;;;13.38;6.05;;;;;;;;;;4982020;28;20030;-60
2022/12/05 06:38:41;;;;;;;10.50;5.10;;;;;;;;;;4982807;28;20065;-58
2022/12/05 06:41:09;;;;;;;12.75;5.22;;;;;;;;;;4963245;28;20030;-59
2022/12/05 06:43:35;;;;;;;13.43;5.38;;;;;;;;;;4981546;28;20027;-70
2022/12/05 06:46:05;;;;;;;12.40;4.93;;;;;;;;;;4969675;28;20416;-59
2022/12/05 06:48:31;;;;;;;9.32;4.70;;;;;;;;;;4963419;28;20129;-59
2022/12/05 06:50:57;;;;;;;9.82;4.50;;;;;;;;;;4962615;28;20158;-59
2022/12/05 06:53:23;;;;;;;7.15;4.03;;;;;;;;;;4944006;28;20024;-60
2022/12/05 06:55:59;;;;;;;6.22;3.42;;;;;;;;;;4962526;28;20536;-58
2022/12/05 06:58:25;;;;;;;7.55;3.55;;;;;;;;;;4961190;28;20050;-60
2022/12/05 07:03:36;;;;;;;9.65;4.25;;;;;;;;;;4963519;28;20066;-60
2022/12/05 07:06:03;;;;;;;10.32;5.57;;;;;;;;;;4963057;28;20460;-60
2022/12/05 07:08:29;;;;;;;12.73;5.05;;;;;;;;;;4961396;28;20022;-61
2022/12/05 07:10:55;;;;;;;10.98;5.15;;;;;;;;;;4969540;28;20026;-60
2022/12/05 07:13:21;;;;;;;9.48;5.07;;;;;;;;;;4972482;28;20094;-60
2022/12/05 07:15:48;;;;;;;9.73;4.40;;;;;;;;;;4962643;28;20034;-61
2022/12/05 07:18:14;;;;;;;10.48;4.55;;;;;;;;;;4953132;29;20035;-67
2022/12/05 07:20:40;;;;;;;8.15;4.60;;;;;;;;;;4953516;29;20046;-61
2022/12/05 07:23:06;;;;;;;9.10;4.85;;;;;;;;;;4957784;28;20122;-65
2022/12/05 07:25:32;;;;;;;10.02;5.13;;;;;;;;;;4953165;28;20066;-62
2022/12/05 07:27:58;;;;;;;12.30;5.95;;;;;;;;;;4935778;29;20396;-61
2022/12/05 07:30:24;;;;;;;11.98;6.13;;;;;;;;;;4953080;29;20399;-63
2022/12/05 07:32:50;;;;;;;12.23;5.35;;;;;;;;;;4952868;29;20471;-61
2022/12/05 07:35:16;;;;;;;11.15;5.30;;;;;;;;;;4953135;29;20030;-62
2022/12/05 07:37:42;;;;;;;8.70;5.00;;;;;;;;;;4953486;28;20039;-62
2022/12/05 07:40:09;;;;;;;12.23;5.28;;;;;;;;;;4961642;28;20081;-70
2022/12/05 07:42:35;;;;;;;12.43;5.30;;;;;;;;;;4961679;28;20019;-60
2022/12/05 07:45:01;;;;;;;10.73;4.90;;;;;;;;;;4959926;28;20043;-61
2022/12/05 07:47:29;;;;;;;10.55;5.03;;;;;;;;;;4944633;28;20097;-60
2022/12/05 07:49:55;;;;;;;12.60;5.80;;;;;;;;;;4959824;28;20110;-60
2022/12/05 07:52:21;;;;;;;10.45;5.18;;;;;;;;;;4953114;29;20023;-60
2022/12/05 07:54:47;;;;;;;9.95;5.30;;;;;;;;;;4957645;28;20026;-73
2022/12/05 07:57:13;;;;;;;10.18;4.68;;;;;;;;;;4960823;28;20043;-60
2022/12/05 07:59:39;;;;;;;8.88;4.13;;;;;;;;;;4961084;28;20395;-61
2022/12/05 08:02:05;;;;;;;8.43;4.57;;;;;;;;;;4962096;28;20110;-60
2022/12/05 08:04:31;;;;;;;10.10;4.55;;;;;;;;;;4960401;28;20023;-61
2022/12/05 08:06:58;;;;;;;9.82;4.88;;;;;;;;;;4961170;28;20035;-62
2022/12/05 08:09:24;;;;;;;7.85;4.07;;;;;;;;;;4961331;28;20085;-61
2022/12/05 08:11:50;;;;;;;9.25;4.93;;;;;;;;;;4962801;28;20345;-67
2022/12/05 08:14:16;;;;;;;11.40;5.03;;;;;;;;;;4961289;28;20031;-68
2022/12/05 08:16:42;;;;;;;11.07;4.75;;;;;;;;;;4952322;29;20032;-60
2022/12/05 08:19:11;;;;;;;9.75;5.28;;;;;;;;;;4952735;29;20388;-60
2022/12/05 08:21:37;;;;;;;9.57;4.05;;;;;;;;;;4952415;29;20023;-61
2022/12/05 08:24:04;;;;;;;9.40;4.95;;;;;;;;;;4952613;29;20041;-61
2022/12/05 08:26:31;;;;;;;8.02;4.47;;;;;;;;;;4951472;29;20114;-64
2022/12/05 08:28:57;;;;;;;7.45;4.10;;;;;;;;;;4952420;29;20031;-67
2022/12/05 08:31:23;;;;;;;7.47;3.63;;;;;;;;;;4935074;29;20046;-61
2022/12/05 08:33:50;;;;;;;6.78;3.88;;;;;;;;;;4952642;29;20035;-61
2022/12/05 08:36:16;;;;;;;7.45;3.83;;;;;;;;;;4954022;28;20050;-61
2022/12/05 08:38:42;;;;;;;6.72;3.97;;;;;;;;;;4956244;29;20035;-61
2022/12/05 08:41:10;;;;;;;6.60;3.40;;;;;;;;;;4956302;29;20519;-70
2022/12/05 08:43:36;;;;;;;6.68;3.30;;;;;;;;;;4956400;29;20276;-61
2022/12/05 08:46:02;;;;;;;8.75;3.83;;;;;;;;;;4955835;28;20055;-61
2022/12/05 08:48:28;;;;;;;6.75;3.25;;;;;;;;;;4956341;29;20483;-60
2022/12/05 08:50:54;;;;;;;7.68;3.22;;;;;;;;;;4956013;29;20047;-60
2022/12/05 08:53:21;;;;;;;5.38;3.10;;;;;;;;;;4956398;29;20094;-60
2022/12/05 08:55:47;;;;;;;7.95;3.65;;;;;;;;;;4956224;29;20110;-64
2022/12/05 08:58:13;;;;;;;13.05;4.10;;;;;;;;;;4955907;29;20090;-60
2022/12/05 09:00:40;;;;;;;7.68;4.07;;;;;;;;;;4956108;29;20031;-61
2022/12/05 09:03:06;;;;;;;7.43;3.67;;;;;;;;;;4956127;29;20031;-60
2022/12/05 09:05:32;;;;;;;6.53;3.47;;;;;;;;;;4956017;29;20035;-60
2022/12/05 09:07:58;;;;;;;5.95;3.33;;;;;;;;;;4960117;28;20039;-59
2022/12/05 09:10:25;;;;;;;7.65;3.88;;;;;;;;;;4963385;28;20027;-60
2022/12/05 09:12:51;;;;;;;10.50;4.38;;;;;;;;;;4965141;28;20031;-60
2022/12/05 09:15:17;;;;;;;8.13;4.13;;;;;;;;;;4964183;28;20074;-61
2022/12/05 09:17:44;;;;;;;8.02;4.15;;;;;;;;;;4960904;28;20034;-78
2022/12/05 09:20:12;;;;;;;8.27;4.10;;;;;;;;;;4946136;28;20424;-84
2022/12/05 09:22:38;;;;;;;10.68;4.55;;;;;;;;;;4964826;28;20041;-60
2022/12/05 09:25:05;;;;;;;8.60;4.18;;;;;;;;;;4959849;28;20058;-61
2022/12/05 09:27:31;;;;;;;7.40;4.05;;;;;;;;;;4951582;28;20037;-60
2022/12/05 09:29:57;;;;;;;8.00;4.55;;;;;;;;;;4967419;28;20023;-60
2022/12/05 09:32:23;;;;;;;6.53;3.80;;;;;;;;;;4966044;28;20030;-60
2022/12/05 09:34:49;;;;;;;8.18;3.95;;;;;;;;;;4974651;28;20046;-67
2022/12/05 09:37:17;;;;;;;6.22;3.92;;;;;;;;;;4974726;28;20027;-59
2022/12/05 09:39:43;;;;;;;9.30;4.72;;;;;;;;;;4969326;28;20031;-67
2022/12/05 09:42:22;;;;;;;8.38;4.43;;;;;;;;;;4970133;28;20058;-64
2022/12/05 09:44:57;;;;;;;10.88;4.70;;;;;;;;;;4971311;28;20463;-63
2022/12/05 09:47:23;;;;;;;10.43;4.95;;;;;;;;;;4964976;28;20042;-66
2022/12/05 09:49:55;;;;;;;8.57;4.85;;;;;;;;;;4973931;28;20492;-66
2022/12/05 09:52:45;;;;;;;8.20;4.38;;;;;;;;;;4958050;28;20498;-73
2022/12/05 09:55:16;;;;;;;9.40;4.65;;;;;;;;;;4876431;29;20041;-64
2022/12/05 09:57:44;;;;;;;9.05;4.35;;;;;;;;;;4860623;29;20045;-63
2022/12/05 10:00:11;;;;;;;8.25;4.55;;;;;;;;;;4877161;29;20124;-63
2022/12/05 10:02:39;;;;;;;9.27;4.95;;;;;;;;;;4876679;29;20041;-63
2022/12/05 10:05:18;;;;;;;8.65;5.22;;;;;;;;;;4876449;29;20025;-69
2022/12/05 10:07:53;;;;;;;8.65;4.75;;;;;;;;;;4861377;29;20477;-72
2022/12/05 10:10:25;;;;;;;8.32;4.22;;;;;;;;;;4876495;29;20060;-66
2022/12/05 10:12:57;;;;;;;9.15;4.55;;;;;;;;;;4875706;29;20796;-74
2022/12/05 10:15:33;;;;;;;8.45;4.65;;;;;;;;;;4875829;29;20037;-73
2022/12/05 10:18:04;;;;;;;9.02;4.60;;;;;;;;;;4876223;29;20560;-65
2022/12/05 10:20:42;;;;;;;9.13;4.82;;;;;;;;;;4876503;29;20022;-64
2022/12/05 10:23:14;;;;;;;8.43;5.13;;;;;;;;;;4868592;29;20495;-72
2022/12/05 10:25:41;;;;;;;11.48;5.28;;;;;;;;;;4873926;29;20037;-73
2022/12/05 10:28:16;;;;;;;9.35;4.78;;;;;;;;;;4875906;29;20125;-72
2022/12/05 10:30:42;;;;;;;11.48;5.28;;;;;;;;;;4874430;29;20124;-64
2022/12/05 10:33:14;;;;;;;8.10;4.38;;;;;;;;;;4961263;28;20051;-63
2022/12/05 10:35:41;;;;;;;8.68;4.53;;;;;;;;;;4970481;28;20031;-63
2022/12/05 10:38:19;;;;;;;9.02;4.88;;;;;;;;;;4972947;28;20118;-63
2022/12/05 10:40:46;;;;;;;9.18;5.05;;;;;;;;;;4971194;28;20026;-63
2022/12/05 10:43:14;;;;;;;9.00;4.68;;;;;;;;;;4971621;28;20037;-70
2022/12/05 10:45:42;;;;;;;8.10;4.47;;;;;;;;;;4968949;28;20468;-63
2022/12/05 10:48:10;;;;;;;8.13;4.78;;;;;;;;;;4972047;28;20026;-62
2022/12/05 10:50:38;;;;;;;10.35;5.10;;;;;;;;;;4972298;28;20019;-63
2022/12/05 10:53:06;;;;;;;13.95;5.90;;;;;;;;;;4972255;28;20037;-60
2022/12/05 10:55:36;;;;;;;11.95;6.10;;;;;;;;;;4973219;28;20058;-71
2022/12/05 10:58:12;;;;;;;10.13;5.68;;;;;;;;;;4971598;28;20042;-59
2022/12/05 11:00:45;;;;;;;10.55;5.80;;;;;;;;;;4952540;28;20025;-59
2022/12/05 11:03:30;;;;;;;10.00;5.30;;;;;;;;;;4953866;29;20376;-61
2022/12/05 11:05:57;;;;;;;11.02;5.20;;;;;;;;;;4958037;28;20449;-69
2022/12/05 11:08:28;;;;;;;9.32;5.28;;;;;;;;;;4963647;28;20475;-65
2022/12/05 11:11:04;;;;;;;9.90;4.97;;;;;;;;;;4964125;28;20034;-71
2022/12/05 11:13:31;;;;;;;12.00;5.85;;;;;;;;;;4960311;28;20114;-71
2022/12/05 11:15:57;;;;;;;12.90;6.40;;;;;;;;;;4962497;28;20067;-74
2022/12/05 11:18:30;;;;;;;16.50;7.72;;;;;;;;;;4962773;28;20035;-65
2022/12/05 11:20:56;;;;;;;12.70;6.57;;;;;;;;;;4957867;28;20027;-64
2022/12/05 11:23:30;;;;;;;13.55;6.07;;;;;;;;;;4958759;28;20099;-67
2022/12/05 11:25:57;;;;;;;8.90;5.15;;;;;;;;;;4963167;28;20047;-64
2022/12/05 11:28:29;;;;;;;10.90;5.80;;;;;;;;;;4962498;28;20023;-64
2022/12/05 11:31:01;;;;;;;12.55;5.95;;;;;;;;;;4962600;28;20027;-63
2022/12/05 11:33:37;;;;;;;13.73;5.15;;;;;;;;;;4964444;28;20027;-71
2022/12/05 11:36:23;;;;;;;9.73;5.30;;;;;;;;;;4972495;28;20435;-65
2022/12/05 11:38:49;;;;;;;10.82;5.88;;;;;;;;;;4955302;28;20035;-65
2022/12/05 11:41:31;;;;;;;12.80;7.28;;;;;;;;;;4957396;28;20578;-72
2022/12/05 11:44:03;;;;;;;12.13;6.23;;;;;;;;;;4960475;28;20030;-77
2022/12/05 11:46:52;;;;;;;13.27;6.35;;;;;;;;;;4967706;28;20046;-63
2022/12/05 11:49:44;;;;;;;9.80;5.40;;;;;;;;;;4972460;28;20031;-64
2022/12/05 11:52:16;;;;;;;15.77;7.68;;;;;;;;;;4942926;28;20066;-64
2022/12/05 11:54:54;;;;;;;13.27;7.00;;;;;;;;;;4972616;28;20125;-64
2022/12/05 11:57:26;;;;;;;12.10;6.18;;;;;;;;;;4972123;28;20046;-64
2022/12/05 12:00:04;;;;;;;14.60;7.10;;;;;;;;;;4972237;28;20027;-63
2022/12/05 12:02:48;;;;;;;12.25;6.80;;;;;;;;;;4972003;28;20042;-63
2022/12/05 12:05:14;;;;;;;13.02;6.85;;;;;;;;;;4971443;28;20548;-63
2022/12/05 12:07:57;;;;;;;13.85;6.22;;;;;;;;;;4972293;28;20053;-64
2022/12/05 12:10:28;;;;;;;15.10;7.18;;;;;;;;;;4971690;28;20102;-62
2022/12/05 12:13:00;;;;;;;17.83;7.45;;;;;;;;;;4971875;28;20629;-65
2022/12/05 12:15:35;;;;;;;13.55;7.72;;;;;;;;;;4971419;28;20039;-71
2022/12/05 12:18:08;;;;;;;13.95;7.05;;;;;;;;;;4971798;28;20039;-63
2022/12/05 12:20:34;;;;;;;13.10;7.00;;;;;;;;;;4972107;28;20031;-62
2022/12/05 12:23:00;;;;;;;12.88;7.10;;;;;;;;;;4971807;28;20042;-66
2022/12/05 12:25:37;;;;;;;17.27;7.50;;;;;;;;;;4971895;28;20113;-63
2022/12/05 12:28:13;;;;;;;14.27;7.07;;;;;;;;;;4972077;28;20037;-72
2022/12/05 12:30:53;;;;;;;11.73;7.07;;;;;;;;;;4971700;28;20101;-63
2022/12/05 12:33:27;;;;;;;15.70;6.78;;;;;;;;;;4972102;28;20039;-63
2022/12/05 12:36:02;;;;;;;10.27;6.00;;;;;;;;;;4971140;28;20077;-65
2022/12/05 12:38:37;;;;;;;9.68;6.30;;;;;;;;;;4971389;28;20074;-63
2022/12/05 12:41:15;;;;;;;10.52;6.00;;;;;;;;;;4967958;28;20105;-63
2022/12/05 12:43:53;;;;;;;11.48;6.10;;;;;;;;;;4961897;28;20026;-63
2022/12/05 12:46:29;;;;;;;11.07;5.80;;;;;;;;;;4961468;28;20070;-62
2022/12/05 12:49:18;;;;;;;11.82;6.25;;;;;;;;;;4961410;28;20110;-62
2022/12/05 12:51:49;;;;;;;12.52;6.22;;;;;;;;;;4961882;28;20432;-69
2022/12/05 12:54:33;;;;;;;13.50;6.05;;;;;;;;;;4943563;28;20485;-69
2022/12/05 12:57:02;;;;;;;13.13;6.43;;;;;;;;;;4952594;29;20019;-63
2022/12/05 12:59:29;;;;;;;11.93;6.25;;;;;;;;;;4952277;29;20081;-62
2022/12/05 13:02:00;;;;;;;13.63;6.35;;;;;;;;;;4952378;29;20404;-74
2022/12/05 13:04:29;;;;;;;13.48;6.75;;;;;;;;;;4951870;29;20027;-63
2022/12/05 13:06:57;;;;;;;14.50;7.20;;;;;;;;;;4952526;29;20049;-67
2022/12/05 13:09:32;;;;;;;11.23;6.22;;;;;;;;;;4952103;29;20439;-71
2022/12/05 13:12:01;;;;;;;11.90;6.30;;;;;;;;;;4952110;29;20119;-65
2022/12/05 13:14:29;;;;;;;12.07;6.72;;;;;;;;;;4952162;29;20023;-73
2022/12/05 13:16:56;;;;;;;12.50;7.35;;;;;;;;;;4951567;29;20050;-66
2022/12/05 13:19:25;;;;;;;16.02;7.40;;;;;;;;;;4934751;29;20411;-63
2022/12/05 13:21:51;;;;;;;18.90;9.15;;;;;;;;;;4955816;28;20396;-65
2022/12/05 13:24:19;;;;;;;14.80;7.90;;;;;;;;;;4972891;28;20057;-63
2022/12/05 13:26:47;;;;;;;16.42;7.50;;;;;;;;;;4957031;28;20031;-71
2022/12/05 13:29:22;;;;;;;14.68;7.55;;;;;;;;;;4972861;28;20053;-66
2022/12/05 13:31:48;;;;;;;15.60;8.10;;;;;;;;;;4976691;28;20034;-62
2022/12/05 13:34:28;;;;;;;18.00;9.43;;;;;;;;;;4981154;28;20471;-69
2022/12/05 13:42:28;;;;;;;17.95;8.57;;;;;;;;;;4965931;28;20030;-72
2022/12/05 13:44:56;;;;;;;14.80;7.40;;;;;;;;;;4964756;28;20047;-71
2022/12/05 13:47:25;;;;;;;14.88;7.78;;;;;;;;;;4964629;28;20027;-62
2022/12/05 13:49:55;;;;;;;13.20;7.47;;;;;;;;;;4971395;28;20156;-62
2022/12/05 13:52:23;;;;;;;14.60;7.97;;;;;;;;;;4974351;28;20454;-61
2022/12/05 13:54:56;;;;;;;16.67;9.10;;;;;;;;;;4974168;28;20042;-63
2022/12/05 13:57:37;;;;;;;15.85;8.35;;;;;;;;;;4974186;28;20046;-62
2022/12/05 14:00:09;;;;;;;17.90;8.77;;;;;;;;;;4974263;28;20497;-62
2022/12/05 14:02:45;;;;;;;23.73;11.23;;;;;;;;;;4974151;28;20037;-66
2022/12/05 14:05:14;;;;;;;26.75;12.27;;;;;;;;;;4973917;28;20030;-62
2022/12/05 14:07:44;;;;;;;24.80;11.25;;;;;;;;;;4974012;28;20054;-62
2022/12/05 14:10:13;;;;;;;26.30;11.50;;;;;;;;;;4974128;28;20049;-68
2022/12/05 14:12:55;;;;;;;26.38;11.10;;;;;;;;;;4973548;28;20041;-62
2022/12/05 14:15:24;;;;;;;26.60;11.95;;;;;;;;;;4955985;28;20395;-62
2022/12/05 14:17:55;;;;;;;23.70;11.30;;;;;;;;;;4973852;28;20133;-62
2022/12/05 14:20:39;;;;;;;24.30;10.45;;;;;;;;;;4973317;28;20474;-62
2022/12/05 14:23:08;;;;;;;26.40;10.73;;;;;;;;;;4972174;28;20041;-62
2022/12/05 14:25:42;;;;;;;19.77;9.30;;;;;;;;;;4965733;28;20074;-62
2022/12/05 14:28:15;;;;;;;21.48;9.68;;;;;;;;;;4953844;28;20111;-60
2022/12/05 14:30:48;;;;;;;20.08;9.40;;;;;;;;;;4953986;29;20030;-72
2022/12/05 14:33:16;;;;;;;18.17;9.05;;;;;;;;;;4954405;29;20035;-62
2022/12/05 14:35:50;;;;;;;20.63;9.38;;;;;;;;;;4959154;28;20026;-63
2022/12/05 14:38:30;;;;;;;21.02;10.38;;;;;;;;;;4964192;28;20034;-63
2022/12/05 14:41:14;;;;;;;21.58;10.05;;;;;;;;;;4964303;28;20018;-58
2022/12/05 14:43:41;;;;;;;24.02;9.73;;;;;;;;;;4963126;28;20026;-61
2022/12/05 14:46:14;;;;;;;24.55;10.38;;;;;;;;;;4962695;28;20108;-61
2022/12/05 14:48:44;;;;;;;19.80;9.73;;;;;;;;;;4963844;28;20040;-61
2022/12/05 14:51:30;;;;;;;21.33;10.20;;;;;;;;;;4961840;28;20098;-80
2022/12/05 14:54:11;;;;;;;21.13;9.48;;;;;;;;;;4964566;28;20030;-75
2022/12/05 14:57:03;;;;;;;22.23;10.27;;;;;;;;;;4962751;28;20027;-61
2022/12/05 14:59:32;;;;;;;23.88;10.88;;;;;;;;;;4968460;28;20108;-62
2022/12/05 15:02:00;;;;;;;19.23;9.75;;;;;;;;;;4962536;28;20177;-81
2022/12/05 15:04:44;;;;;;;22.08;9.88;;;;;;;;;;4961702;28;20031;-66
2022/12/05 15:07:13;;;;;;;25.08;11.73;;;;;;;;;;4963710;28;20015;-61
2022/12/05 15:09:43;;;;;;;23.55;12.00;;;;;;;;;;4963290;28;20045;-62
2022/12/05 15:12:15;;;;;;;31.50;12.95;;;;;;;;;;4963748;28;20015;-82
2022/12/05 15:15:08;;;;;;;33.05;13.93;;;;;;;;;;4966014;28;20027;-63
2022/12/05 15:17:37;;;;;;;28.73;13.50;;;;;;;;;;4953278;28;20092;-69
2022/12/05 15:20:05;;;;;;;29.92;13.50;;;;;;;;;;4960518;28;20054;-71
2022/12/05 15:22:34;;;;;;;30.48;12.60;;;;;;;;;;4969070;28;20030;-65
2022/12/05 15:25:19;;;;;;;32.22;14.65;;;;;;;;;;4953209;29;20114;-59
2022/12/05 15:27:52;;;;;;;35.70;15.80;;;;;;;;;;4957123;28;20105;-66
2022/12/05 15:30:18;;;;;;;34.45;14.82;;;;;;;;;;4962295;28;20101;-60
2022/12/05 15:32:44;;;;;;;34.45;15.23;;;;;;;;;;4957951;28;20097;-60
2022/12/05 15:35:12;;;;;;;32.58;14.60;;;;;;;;;;4962915;28;20027;-67
2022/12/05 15:37:51;;;;;;;28.42;13.52;;;;;;;;;;4971966;28;20050;-64
2022/12/05 15:40:20;;;;;;;30.48;13.82;;;;;;;;;;4967270;28;20546;-66
2022/12/05 15:42:49;;;;;;;26.45;13.02;;;;;;;;;;4961780;28;20034;-59
2022/12/05 15:45:19;;;;;;;31.00;14.68;;;;;;;;;;4964616;28;20050;-60
2022/12/05 15:47:45;;;;;;;35.80;15.88;;;;;;;;;;4959698;28;20035;-62
2022/12/05 15:50:15;;;;;;;36.55;16.92;;;;;;;;;;4963282;28;20406;-60
2022/12/05 15:52:44;;;;;;;44.83;18.38;;;;;;;;;;4963995;28;20097;-62
2022/12/05 15:55:15;;;;;;;35.95;16.33;;;;;;;;;;4961349;28;20037;-62
2022/12/05 15:57:46;;;;;;;35.15;15.93;;;;;;;;;;4957866;28;20038;-59
2022/12/05 16:00:17;;;;;;;39.33;18.25;;;;;;;;;;4964364;28;20154;-59
2022/12/05 16:02:50;;;;;;;36.72;16.65;;;;;;;;;;4975081;28;20054;-59
2022/12/05 16:05:31;;;;;;;36.42;16.35;;;;;;;;;;4979910;28;20378;-59
2022/12/05 16:07:58;;;;;;;42.25;18.70;;;;;;;;;;4986796;28;20039;-59
2022/12/05 16:10:24;;;;;;;43.97;20.55;;;;;;;;;;4980116;28;20106;-64
2022/12/05 16:12:51;;;;;;;45.10;20.40;;;;;;;;;;4973725;28;20441;-60
2022/12/05 16:15:25;;;;;;;47.88;21.92;;;;;;;;;;4980518;28;20106;-73
2022/12/05 16:17:55;;;;;;;45.00;21.13;;;;;;;;;;4978060;28;20160;-60
2022/12/05 16:20:24;;;;;;;43.10;20.30;;;;;;;;;;4977629;28;20141;-72
2022/12/05 16:22:51;;;;;;;40.75;20.30;;;;;;;;;;4968581;28;20089;-60
2022/12/05 16:25:21;;;;;;;42.80;20.05;;;;;;;;;;4966350;28;20027;-64
2022/12/05 16:28:14;;;;;;;40.13;19.30;;;;;;;;;;4976891;28;20038;-77
2022/12/05 16:30:40;;;;;;;41.20;18.00;;;;;;;;;;4975071;28;20070;-64
2022/12/05 16:33:07;;;;;;;47.53;20.10;;;;;;;;;;4971992;28;20475;-70
2022/12/05 16:35:44;;;;;;;39.90;17.85;;;;;;;;;;4974215;28;20247;-77
2022/12/05 16:38:10;;;;;;;44.10;19.55;;;;;;;;;;4987952;28;20084;-75
2022/12/05 16:40:36;;;;;;;41.95;19.25;;;;;;;;;;4979687;28;20099;-83
2022/12/05 16:43:04;;;;;;;43.72;20.02;;;;;;;;;;4975076;28;20162;-78
2022/12/05 16:45:38;;;;;;;43.20;20.30;;;;;;;;;;4976517;28;20513;-80
2022/12/05 16:48:13;;;;;;;48.08;20.65;;;;;;;;;;4971625;28;20038;-60
2022/12/05 16:50:39;;;;;;;44.47;20.85;;;;;;;;;;4971598;28;20471;-60
2022/12/05 16:53:08;;;;;;;43.63;19.35;;;;;;;;;;4971394;28;20030;-83
2022/12/05 16:55:38;;;;;;;47.63;18.85;;;;;;;;;;4971286;28;20130;-79
2022/12/05 16:58:05;;;;;;;46.67;21.38;;;;;;;;;;4975517;28;20038;-60
2022/12/05 17:00:32;;;;;;;50.45;22.17;;;;;;;;;;4975653;28;20363;-59
2022/12/05 17:02:58;;;;;;;44.28;19.67;;;;;;;;;;4958480;28;20054;-60
2022/12/05 17:05:24;;;;;;;45.08;20.38;;;;;;;;;;4977119;28;20049;-60
2022/12/05 17:07:50;;;;;;;50.20;22.40;;;;;;;;;;4974080;28;20504;-60
2022/12/05 17:10:17;;;;;;;47.00;21.73;;;;;;;;;;4973130;28;20081;-59
2022/12/05 17:12:43;;;;;;;53.03;22.65;;;;;;;;;;4982573;28;20109;-63
2022/12/05 17:15:19;;;;;;;56.65;24.02;;;;;;;;;;4972276;28;20038;-67
2022/12/05 17:17:45;;;;;;;50.92;23.27;;;;;;;;;;4980114;28;20513;-61
2022/12/05 17:20:12;;;;;;;54.47;23.42;;;;;;;;;;4979031;28;20078;-73
2022/12/05 17:22:41;;;;;;;63.13;25.27;;;;;;;;;;4967387;28;20762;-67
2022/12/05 17:25:16;;;;;;;54.42;23.05;;;;;;;;;;4976013;28;20057;-60
2022/12/05 17:27:42;;;;;;;56.75;23.95;;;;;;;;;;4970518;28;20546;-58
2022/12/05 17:30:08;;;;;;;49.30;21.73;;;;;;;;;;4974680;28;20426;-60
2022/12/05 17:32:34;;;;;;;50.90;20.05;;;;;;;;;;4977085;28;20035;-59
2022/12/05 17:35:00;;;;;;;46.03;18.48;;;;;;;;;;4972604;28;20082;-60
2022/12/05 17:37:26;;;;;;;42.78;18.98;;;;;;;;;;4974418;28;20026;-73
2022/12/05 17:39:52;;;;;;;47.05;20.02;;;;;;;;;;4966757;28;20039;-76
2022/12/05 17:42:18;;;;;;;46.53;20.73;;;;;;;;;;4974125;28;20022;-61
2022/12/05 17:44:44;;;;;;;43.75;19.85;;;;;;;;;;4982290;28;20520;-79
2022/12/05 17:47:10;;;;;;;47.00;20.33;;;;;;;;;;4973958;28;20395;-76
2022/12/05 17:49:36;;;;;;;43.92;18.35;;;;;;;;;;4971088;28;20506;-60
2022/12/05 17:52:03;;;;;;;37.33;16.63;;;;;;;;;;4969112;28;20470;-63
2022/12/05 17:54:29;;;;;;;33.90;16.05;;;;;;;;;;4975748;28;20438;-60
2022/12/05 17:56:55;;;;;;;35.53;16.27;;;;;;;;;;4968850;28;20403;-71
2022/12/05 17:59:21;;;;;;;36.88;16.25;;;;;;;;;;4968550;28;20034;-60
2022/12/05 18:01:47;;;;;;;40.53;18.83;;;;;;;;;;4981076;28;20037;-61
2022/12/05 18:04:13;;;;;;;43.78;20.65;;;;;;;;;;4974866;28;20030;-72
2022/12/05 18:06:39;;;;;;;45.63;19.58;;;;;;;;;;4986339;28;20156;-83
2022/12/05 18:09:05;;;;;;;46.67;21.45;;;;;;;;;;4973998;28;20110;-65
2022/12/05 18:11:31;;;;;;;44.60;20.17;;;;;;;;;;4974381;28;20034;-60
2022/12/05 18:13:58;;;;;;;45.75;19.95;;;;;;;;;;4964616;28;20082;-79
2022/12/05 18:16:24;;;;;;;43.05;18.58;;;;;;;;;;4968131;28;20038;-63
2022/12/05 18:18:50;;;;;;;37.95;18.90;;;;;;;;;;4973976;28;20038;-61
2022/12/05 18:21:16;;;;;;;37.60;17.42;;;;;;;;;;4974303;28;20033;-73
2022/12/05 18:23:42;;;;;;;34.83;16.27;;;;;;;;;;4972999;28;20116;-60
2022/12/05 18:26:09;;;;;;;36.65;15.05;;;;;;;;;;4983145;28;20030;-63
2022/12/05 18:28:37;;;;;;;33.55;16.08;;;;;;;;;;4982005;28;20391;-60
2022/12/05 18:31:14;;;;;;;31.60;15.30;;;;;;;;;;4973973;28;20023;-62
2022/12/05 18:33:40;;;;;;;31.52;15.73;;;;;;;;;;4974552;28;20046;-61
2022/12/05 18:36:14;;;;;;;32.67;17.20;;;;;;;;;;4975408;28;20085;-61
2022/12/05 18:38:41;;;;;;;36.85;16.98;;;;;;;;;;4974418;28;20034;-64
2022/12/05 18:41:08;;;;;;;34.33;15.98;;;;;;;;;;4973984;28;20019;-60
2022/12/05 18:43:34;;;;;;;31.48;14.98;;;;;;;;;;4973858;28;20173;-60
2022/12/05 18:46:01;;;;;;;33.38;14.63;;;;;;;;;;4972854;28;20109;-60
2022/12/05 18:48:27;;;;;;;33.63;15.55;;;;;;;;;;4973358;28;20019;-60
2022/12/05 18:50:53;;;;;;;28.05;13.73;;;;;;;;;;4967608;28;20443;-60
2022/12/05 18:53:19;;;;;;;29.20;14.60;;;;;;;;;;4966209;28;20487;-60
2022/12/05 18:55:45;;;;;;;30.05;13.93;;;;;;;;;;4973525;28;20027;-61
2022/12/05 18:58:11;;;;;;;30.17;14.63;;;;;;;;;;4973174;28;20073;-60
2022/12/05 19:00:37;;;;;;;26.48;13.60;;;;;;;;;;4973093;28;20030;-60
2022/12/05 19:03:03;;;;;;;27.60;13.05;;;;;;;;;;4967846;28;20039;-70
2022/12/05 19:05:30;;;;;;;30.67;13.07;;;;;;;;;;4954177;28;20364;-60
2022/12/05 19:07:56;;;;;;;29.40;14.05;;;;;;;;;;4973098;28;20037;-60
2022/12/05 19:10:22;;;;;;;31.63;14.20;;;;;;;;;;4973855;28;20023;-64
2022/12/05 19:12:48;;;;;;;29.60;13.40;;;;;;;;;;4970357;28;20026;-59
2022/12/05 19:15:14;;;;;;;26.95;13.40;;;;;;;;;;4954395;29;20039;-60
2022/12/05 19:17:40;;;;;;;29.08;13.65;;;;;;;;;;4953591;29;20066;-60
2022/12/05 19:20:07;;;;;;;31.70;13.73;;;;;;;;;;4955574;28;20049;-74
2022/12/05 19:22:33;;;;;;;29.88;13.23;;;;;;;;;;4959884;28;20026;-64
2022/12/05 19:24:59;;;;;;;26.25;13.00;;;;;;;;;;4958066;28;20028;-60
2022/12/05 19:27:25;;;;;;;25.13;12.80;;;;;;;;;;4953521;29;20054;-60
2022/12/05 19:29:51;;;;;;;25.33;12.10;;;;;;;;;;4953534;29;20475;-63
2022/12/05 19:32:17;;;;;;;27.02;12.40;;;;;;;;;;4953590;29;20034;-60
2022/12/05 19:34:45;;;;;;;27.95;12.40;;;;;;;;;;4953157;29;20024;-61
2022/12/05 19:37:11;;;;;;;25.50;11.45;;;;;;;;;;4960096;28;20026;-60
2022/12/05 19:39:37;;;;;;;24.80;11.77;;;;;;;;;;4961702;28;20130;-60
2022/12/05 19:42:03;;;;;;;24.02;11.68;;;;;;;;;;4962721;28;20031;-60
2022/12/05 19:44:29;;;;;;;26.08;12.10;;;;;;;;;;4961075;28;20023;-62
2022/12/05 19:46:55;;;;;;;27.88;12.05;;;;;;;;;;4961011;28;20105;-59
2022/12/05 19:49:21;;;;;;;27.63;12.45;;;;;;;;;;4962326;28;20471;-61
2022/12/05 19:51:48;;;;;;;28.58;13.23;;;;;;;;;;4960322;28;20035;-60
2022/12/05 19:54:16;;;;;;;26.10;12.32;;;;;;;;;;4961151;28;20019;-61
2022/12/05 19:56:43;;;;;;;32.53;14.20;;;;;;;;;;4962258;28;20603;-61
2022/12/05 19:59:12;;;;;;;27.08;13.10;;;;;;;;;;4961974;28;20035;-60
2022/12/05 20:01:39;;;;;;;27.75;13.27;;;;;;;;;;4961586;28;20035;-60
2022/12/05 20:04:15;;;;;;;30.13;13.68;;;;;;;;;;4960257;28;20054;-62
2022/12/05 20:06:42;;;;;;;26.60;13.25;;;;;;;;;;4961987;28;20394;-60
2022/12/05 20:09:09;;;;;;;31.38;14.70;;;;;;;;;;4960468;28;20023;-60
2022/12/05 20:11:37;;;;;;;32.20;15.32;;;;;;;;;;4961454;28;20019;-60
2022/12/05 20:14:03;;;;;;;32.13;14.93;;;;;;;;;;4962259;28;20391;-60
2022/12/05 20:16:29;;;;;;;28.90;14.43;;;;;;;;;;4965195;28;20039;-70
2022/12/05 20:18:58;;;;;;;32.75;15.20;;;;;;;;;;4960220;28;20046;-59
2022/12/05 20:21:25;;;;;;;36.45;14.95;;;;;;;;;;4959373;28;20011;-60
2022/12/05 20:23:52;;;;;;;35.78;15.55;;;;;;;;;;4954882;28;20039;-62
2022/12/05 20:26:21;;;;;;;34.90;15.65;;;;;;;;;;4961870;28;20077;-60
2022/12/05 20:28:48;;;;;;;34.65;15.32;;;;;;;;;;4960362;28;20031;-60
2022/12/05 20:31:18;;;;;;;30.55;13.88;;;;;;;;;;4959647;28;20020;-62
2022/12/05 20:33:45;;;;;;;33.05;13.95;;;;;;;;;;4966560;28;20060;-60